sensor_id;sensor_type;location;lat;lon;timestamp;temperature;humidity
72320;SHT30;60269;52.502;16.732;2023-12-28T00:01:24;1.73;93.46
72320;SHT30;60269;52.502;16.732;2023-12-28T00:04:56;1.79;93.15
72320;SHT30;60269;52.502;16.732;2023-12-28T00:08:28;1.76;93.25
72320;SHT30;60269;52.502;16.732;2023-12-28T00:12:00;1.75;93.38
72320;SHT30;60269;52.502;16.732;2023-12-28T00:15:32;1.69;93.47
72320;SHT30;60269;52.502;16.732;2023-12-28T00:19:04;1.62;93.68
72320;SHT30;60269;52.502;16.732;2023-12-28T00:22:37;1.58;93.74
72320;SHT30;60269;52.502;16.732;2023-12-28T00:26:09;1.56;93.77
72320;SHT30;60269;52.502;16.732;2023-12-28T00:29:41;1.56;93.74
72320;SHT30;60269;52.502;16.732;2023-12-28T00:33:14;1.41;94.09
72320;SHT30;60269;52.502;16.732;2023-12-28T00:36:47;1.39;94.25
72320;SHT30;60269;52.502;16.732;2023-12-28T00:40:19;1.41;94.13
72320;SHT30;60269;52.502;16.732;2023-12-28T00:43:51;1.32;94.49
72320;SHT30;60269;52.502;16.732;2023-12-28T00:47:23;1.34;94.50
72320;SHT30;60269;52.502;16.732;2023-12-28T00:50:54;1.35;94.43
72320;SHT30;60269;52.502;16.732;2023-12-28T00:54:27;1.30;94.68
72320;SHT30;60269;52.502;16.732;2023-12-28T00:57:59;1.31;94.60
72320;SHT30;60269;52.502;16.732;2023-12-28T01:01:31;1.28;94.63
72320;SHT30;60269;52.502;16.732;2023-12-28T01:05:03;1.34;94.43
72320;SHT30;60269;52.502;16.732;2023-12-28T01:08:36;1.28;94.73
72320;SHT30;60269;52.502;16.732;2023-12-28T01:12:08;1.20;95.15
72320;SHT30;60269;52.502;16.732;2023-12-28T01:15:40;1.23;95.08
72320;SHT30;60269;52.502;16.732;2023-12-28T01:19:12;1.21;94.99
72320;SHT30;60269;52.502;16.732;2023-12-28T01:22:44;1.21;95.17
72320;SHT30;60269;52.502;16.732;2023-12-28T01:26:17;1.30;94.76
72320;SHT30;60269;52.502;16.732;2023-12-28T01:29:48;1.34;94.56
72320;SHT30;60269;52.502;16.732;2023-12-28T01:33:20;1.36;94.48
72320;SHT30;60269;52.502;16.732;2023-12-28T01:36:52;1.39;94.40
72320;SHT30;60269;52.502;16.732;2023-12-28T01:40:24;1.30;94.85
72320;SHT30;60269;52.502;16.732;2023-12-28T01:43:56;1.31;94.71
72320;SHT30;60269;52.502;16.732;2023-12-28T01:47:29;1.28;94.90
72320;SHT30;60269;52.502;16.732;2023-12-28T01:51:02;1.31;94.96
72320;SHT30;60269;52.502;16.732;2023-12-28T01:54:35;1.35;94.75
72320;SHT30;60269;52.502;16.732;2023-12-28T01:58:08;1.35;94.80
72320;SHT30;60269;52.502;16.732;2023-12-28T02:01:41;1.35;94.80
72320;SHT30;60269;52.502;16.732;2023-12-28T02:05:14;1.38;94.75
72320;SHT30;60269;52.502;16.732;2023-12-28T02:08:46;1.39;94.79
72320;SHT30;60269;52.502;16.732;2023-12-28T02:12:18;1.30;95.05
72320;SHT30;60269;52.502;16.732;2023-12-28T02:16:05;1.31;95.15
72320;SHT30;60269;52.502;16.732;2023-12-28T02:19:49;1.32;95.21
72320;SHT30;60269;52.502;16.732;2023-12-28T02:23:21;1.25;95.60
72320;SHT30;60269;52.502;16.732;2023-12-28T02:26:53;1.25;95.60
72320;SHT30;60269;52.502;16.732;2023-12-28T02:30:25;1.31;95.46
72320;SHT30;60269;52.502;16.732;2023-12-28T02:34:04;1.27;95.66
72320;SHT30;60269;52.502;16.732;2023-12-28T02:37:38;1.20;95.93
72320;SHT30;60269;52.502;16.732;2023-12-28T02:41:11;1.24;95.89
72320;SHT30;60269;52.502;16.732;2023-12-28T02:44:43;1.39;95.49
72320;SHT30;60269;52.502;16.732;2023-12-28T02:48:16;1.38;95.55
72320;SHT30;60269;52.502;16.732;2023-12-28T02:51:48;1.44;95.35
72320;SHT30;60269;52.502;16.732;2023-12-28T02:55:20;1.42;95.32
72320;SHT30;60269;52.502;16.732;2023-12-28T02:58:51;1.44;95.31
72320;SHT30;60269;52.502;16.732;2023-12-28T03:02:24;1.34;95.76
72320;SHT30;60269;52.502;16.732;2023-12-28T03:05:55;1.38;95.80
72320;SHT30;60269;52.502;16.732;2023-12-28T03:09:28;1.38;95.90
72320;SHT30;60269;52.502;16.732;2023-12-28T03:13:00;1.27;96.21
72320;SHT30;60269;52.502;16.732;2023-12-28T03:16:32;1.27;96.72
72320;SHT30;60269;52.502;16.732;2023-12-28T03:20:06;1.49;96.19
72320;SHT30;60269;52.502;16.732;2023-12-28T03:23:38;1.49;96.14
72320;SHT30;60269;52.502;16.732;2023-12-28T03:27:10;1.55;95.91
72320;SHT30;60269;52.502;16.732;2023-12-28T03:30:44;1.60;95.82
72320;SHT30;60269;52.502;16.732;2023-12-28T03:34:16;1.51;96.26
72320;SHT30;60269;52.502;16.732;2023-12-28T03:37:49;1.63;95.95
72320;SHT30;60269;52.502;16.732;2023-12-28T03:41:21;1.56;96.16
72320;SHT30;60269;52.502;16.732;2023-12-28T03:44:53;1.49;96.29
72320;SHT30;60269;52.502;16.732;2023-12-28T03:48:25;1.62;96.02
72320;SHT30;60269;52.502;16.732;2023-12-28T03:51:57;1.60;96.33
72320;SHT30;60269;52.502;16.732;2023-12-28T03:55:29;1.60;96.22
72320;SHT30;60269;52.502;16.732;2023-12-28T03:59:01;1.75;95.86
72320;SHT30;60269;52.502;16.732;2023-12-28T04:02:33;1.87;95.47
72320;SHT30;60269;52.502;16.732;2023-12-28T04:06:05;2.30;94.01
72320;SHT30;60269;52.502;16.732;2023-12-28T04:09:37;2.63;92.55
72320;SHT30;60269;52.502;16.732;2023-12-28T04:13:09;2.72;92.18
72320;SHT30;60269;52.502;16.732;2023-12-28T04:16:41;2.91;91.27
72320;SHT30;60269;52.502;16.732;2023-12-28T04:20:13;2.88;91.49
72320;SHT30;60269;52.502;16.732;2023-12-28T04:23:45;3.06;90.74
72320;SHT30;60269;52.502;16.732;2023-12-28T04:27:17;3.04;90.60
72320;SHT30;60269;52.502;16.732;2023-12-28T04:30:49;3.16;90.28
72320;SHT30;60269;52.502;16.732;2023-12-28T04:34:21;3.12;90.21
72320;SHT30;60269;52.502;16.732;2023-12-28T04:37:53;2.93;91.17
72320;SHT30;60269;52.502;16.732;2023-12-28T04:41:26;3.03;90.61
72320;SHT30;60269;52.502;16.732;2023-12-28T04:44:58;2.92;91.04
72320;SHT30;60269;52.502;16.732;2023-12-28T04:48:31;2.95;90.82
72320;SHT30;60269;52.502;16.732;2023-12-28T04:52:03;2.91;91.11
72320;SHT30;60269;52.502;16.732;2023-12-28T04:55:35;3.13;90.34
72320;SHT30;60269;52.502;16.732;2023-12-28T04:59:07;3.20;89.92
72320;SHT30;60269;52.502;16.732;2023-12-28T05:02:39;3.21;89.73
72320;SHT30;60269;52.502;16.732;2023-12-28T05:06:11;3.24;89.77
72320;SHT30;60269;52.502;16.732;2023-12-28T05:09:43;3.44;89.01
72320;SHT30;60269;52.502;16.732;2023-12-28T05:13:15;3.33;89.49
72320;SHT30;60269;52.502;16.732;2023-12-28T05:16:48;3.42;88.87
72320;SHT30;60269;52.502;16.732;2023-12-28T05:20:19;3.50;88.62
72320;SHT30;60269;52.502;16.732;2023-12-28T05:23:52;3.64;88.33
72320;SHT30;60269;52.502;16.732;2023-12-28T05:27:23;3.74;87.79
72320;SHT30;60269;52.502;16.732;2023-12-28T05:30:56;3.81;87.49
72320;SHT30;60269;52.502;16.732;2023-12-28T05:34:28;3.78;87.66
72320;SHT30;60269;52.502;16.732;2023-12-28T05:38:01;3.89;87.14
72320;SHT30;60269;52.502;16.732;2023-12-28T05:41:33;3.99;86.54
72320;SHT30;60269;52.502;16.732;2023-12-28T05:45:05;4.02;86.37
72320;SHT30;60269;52.502;16.732;2023-12-28T05:48:37;3.90;87.01
72320;SHT30;60269;52.502;16.732;2023-12-28T05:52:09;4.06;86.11
72320;SHT30;60269;52.502;16.732;2023-12-28T05:55:41;4.06;86.03
72320;SHT30;60269;52.502;16.732;2023-12-28T05:59:13;4.05;86.48
72320;SHT30;60269;52.502;16.732;2023-12-28T06:02:48;4.14;85.84
72320;SHT30;60269;52.502;16.732;2023-12-28T06:06:23;4.30;84.89
72320;SHT30;60269;52.502;16.732;2023-12-28T06:09:55;4.46;84.43
72320;SHT30;60269;52.502;16.732;2023-12-28T06:13:27;4.50;84.65
72320;SHT30;60269;52.502;16.732;2023-12-28T06:16:59;4.37;86.51
72320;SHT30;60269;52.502;16.732;2023-12-28T06:20:31;4.09;89.29
72320;SHT30;60269;52.502;16.732;2023-12-28T06:24:04;3.92;90.70
72320;SHT30;60269;52.502;16.732;2023-12-28T06:27:36;3.83;91.80
72320;SHT30;60269;52.502;16.732;2023-12-28T06:31:07;4.21;90.14
72320;SHT30;60269;52.502;16.732;2023-12-28T06:34:40;4.41;89.85
72320;SHT30;60269;52.502;16.732;2023-12-28T06:38:12;4.58;89.54
72320;SHT30;60269;52.502;16.732;2023-12-28T06:41:48;4.72;89.21
72320;SHT30;60269;52.502;16.732;2023-12-28T06:45:20;4.77;89.57
72320;SHT30;60269;52.502;16.732;2023-12-28T06:48:58;4.84;89.68
72320;SHT30;60269;52.502;16.732;2023-12-28T06:52:31;4.78;90.50
72320;SHT30;60269;52.502;16.732;2023-12-28T06:56:03;4.91;89.79
72320;SHT30;60269;52.502;16.732;2023-12-28T06:59:35;4.91;89.93
72320;SHT30;60269;52.502;16.732;2023-12-28T07:03:07;4.98;89.90
72320;SHT30;60269;52.502;16.732;2023-12-28T07:06:40;5.11;89.26
72320;SHT30;60269;52.502;16.732;2023-12-28T07:10:12;5.15;89.28
72320;SHT30;60269;52.502;16.732;2023-12-28T07:13:44;5.26;88.85
72320;SHT30;60269;52.502;16.732;2023-12-28T07:17:16;5.30;89.21
72320;SHT30;60269;52.502;16.732;2023-12-28T07:20:49;5.19;90.31
72320;SHT30;60269;52.502;16.732;2023-12-28T07:24:21;5.18;90.86
72320;SHT30;60269;52.502;16.732;2023-12-28T07:27:53;5.23;90.70
72320;SHT30;60269;52.502;16.732;2023-12-28T07:31:27;5.27;90.41
72320;SHT30;60269;52.502;16.732;2023-12-28T07:34:59;5.36;90.20
72320;SHT30;60269;52.502;16.732;2023-12-28T07:38:32;5.37;90.33
72320;SHT30;60269;52.502;16.732;2023-12-28T07:42:04;5.46;89.75
72320;SHT30;60269;52.502;16.732;2023-12-28T07:45:36;5.42;90.40
72320;SHT30;60269;52.502;16.732;2023-12-28T07:49:10;5.50;89.69
72320;SHT30;60269;52.502;16.732;2023-12-28T07:52:43;5.47;89.94
72320;SHT30;60269;52.502;16.732;2023-12-28T07:56:15;5.50;89.89
72320;SHT30;60269;52.502;16.732;2023-12-28T07:59:47;5.57;89.38
72320;SHT30;60269;52.502;16.732;2023-12-28T08:03:19;5.63;88.94
72320;SHT30;60269;52.502;16.732;2023-12-28T08:06:51;5.71;88.62
72320;SHT30;60269;52.502;16.732;2023-12-28T08:10:23;5.79;88.11
72320;SHT30;60269;52.502;16.732;2023-12-28T08:13:55;5.88;88.04
72320;SHT30;60269;52.502;16.732;2023-12-28T08:17:27;5.94;87.74
72320;SHT30;60269;52.502;16.732;2023-12-28T08:21:00;6.09;87.34
72320;SHT30;60269;52.502;16.732;2023-12-28T08:24:31;6.28;86.00
72320;SHT30;60269;52.502;16.732;2023-12-28T08:28:05;6.33;85.65
72320;SHT30;60269;52.502;16.732;2023-12-28T08:31:37;6.40;85.40
72320;SHT30;60269;52.502;16.732;2023-12-28T08:35:09;6.46;85.82
72320;SHT30;60269;52.502;16.732;2023-12-28T08:38:41;6.52;85.39
72320;SHT30;60269;52.502;16.732;2023-12-28T08:42:13;6.57;85.35
72320;SHT30;60269;52.502;16.732;2023-12-28T08:45:45;6.63;85.26
72320;SHT30;60269;52.502;16.732;2023-12-28T08:49:17;6.70;84.56
72320;SHT30;60269;52.502;16.732;2023-12-28T08:52:50;6.79;84.65
72320;SHT30;60269;52.502;16.732;2023-12-28T08:56:22;6.76;84.55
72320;SHT30;60269;52.502;16.732;2023-12-28T08:59:55;6.72;84.35
72320;SHT30;60269;52.502;16.732;2023-12-28T09:03:27;6.67;84.50
72320;SHT30;60269;52.502;16.732;2023-12-28T09:06:59;6.72;84.50
72320;SHT30;60269;52.502;16.732;2023-12-28T09:10:31;6.79;84.07
72320;SHT30;60269;52.502;16.732;2023-12-28T09:14:03;6.85;84.17
72320;SHT30;60269;52.502;16.732;2023-12-28T09:17:35;6.93;83.09
72320;SHT30;60269;52.502;16.732;2023-12-28T09:21:09;7.05;82.69
72320;SHT30;60269;52.502;16.732;2023-12-28T09:24:41;7.12;82.17
72320;SHT30;60269;52.502;16.732;2023-12-28T09:28:13;7.18;81.87
72320;SHT30;60269;52.502;16.732;2023-12-28T09:31:45;7.18;82.22
72320;SHT30;60269;52.502;16.732;2023-12-28T09:35:18;7.14;82.27
72320;SHT30;60269;52.502;16.732;2023-12-28T09:38:49;7.25;81.30
72320;SHT30;60269;52.502;16.732;2023-12-28T09:42:30;7.23;81.33
72320;SHT30;60269;52.502;16.732;2023-12-28T09:46:08;7.23;81.53
72320;SHT30;60269;52.502;16.732;2023-12-28T09:49:41;7.23;81.72
72320;SHT30;60269;52.502;16.732;2023-12-28T09:53:14;7.28;81.72
72320;SHT30;60269;52.502;16.732;2023-12-28T09:56:46;7.33;81.07
72320;SHT30;60269;52.502;16.732;2023-12-28T10:00:19;7.36;81.46
72320;SHT30;60269;52.502;16.732;2023-12-28T10:03:51;7.26;81.99
72320;SHT30;60269;52.502;16.732;2023-12-28T10:07:23;7.25;82.27
72320;SHT30;60269;52.502;16.732;2023-12-28T10:10:57;7.21;82.52
72320;SHT30;60269;52.502;16.732;2023-12-28T10:14:31;7.25;82.24
72320;SHT30;60269;52.502;16.732;2023-12-28T10:18:03;7.23;82.34
72320;SHT30;60269;52.502;16.732;2023-12-28T10:21:35;7.28;82.06
72320;SHT30;60269;52.502;16.732;2023-12-28T10:25:08;7.25;82.36
72320;SHT30;60269;52.502;16.732;2023-12-28T10:28:40;7.29;82.34
72320;SHT30;60269;52.502;16.732;2023-12-28T10:32:14;7.25;82.73
72320;SHT30;60269;52.502;16.732;2023-12-28T10:35:49;7.26;82.62
72320;SHT30;60269;52.502;16.732;2023-12-28T10:39:22;7.28;82.71
72320;SHT30;60269;52.502;16.732;2023-12-28T10:43:02;7.26;82.83
72320;SHT30;60269;52.502;16.732;2023-12-28T10:46:39;7.29;82.76
72320;SHT30;60269;52.502;16.732;2023-12-28T10:50:14;7.35;82.45
72320;SHT30;60269;52.502;16.732;2023-12-28T10:53:59;7.39;82.29
72320;SHT30;60269;52.502;16.732;2023-12-28T10:57:43;7.41;82.09
72320;SHT30;60269;52.502;16.732;2023-12-28T11:01:26;7.45;82.06
72320;SHT30;60269;52.502;16.732;2023-12-28T11:05:00;7.50;82.13
72320;SHT30;60269;52.502;16.732;2023-12-28T11:08:34;7.58;82.02
72320;SHT30;60269;52.502;16.732;2023-12-28T11:12:08;7.56;82.15
72320;SHT30;60269;52.502;16.732;2023-12-28T11:15:45;7.63;82.26
72320;SHT30;60269;52.502;16.732;2023-12-28T11:19:20;7.62;82.33
72320;SHT30;60269;52.502;16.732;2023-12-28T11:22:55;7.73;81.57
72320;SHT30;60269;52.502;16.732;2023-12-28T11:26:28;7.71;82.07
72320;SHT30;60269;52.502;16.732;2023-12-28T11:30:00;7.77;81.77
72320;SHT30;60269;52.502;16.732;2023-12-28T11:33:33;7.77;82.23
72320;SHT30;60269;52.502;16.732;2023-12-28T11:37:13;7.80;82.40
72320;SHT30;60269;52.502;16.732;2023-12-28T11:40:47;7.74;82.51
72320;SHT30;60269;52.502;16.732;2023-12-28T11:44:25;7.71;82.76
72320;SHT30;60269;52.502;16.732;2023-12-28T11:48:01;7.69;83.19
72320;SHT30;60269;52.502;16.732;2023-12-28T11:51:37;7.70;83.07
72320;SHT30;60269;52.502;16.732;2023-12-28T11:55:10;7.71;83.16
72320;SHT30;60269;52.502;16.732;2023-12-28T11:58:42;7.69;83.09
72320;SHT30;60269;52.502;16.732;2023-12-28T12:02:18;7.69;83.19
72320;SHT30;60269;52.502;16.732;2023-12-28T12:05:50;7.67;83.47
72320;SHT30;60269;52.502;16.732;2023-12-28T12:09:22;7.60;83.85
72320;SHT30;60269;52.502;16.732;2023-12-28T12:12:54;7.74;83.52
72320;SHT30;60269;52.502;16.732;2023-12-28T12:16:27;7.79;83.09
72320;SHT30;60269;52.502;16.732;2023-12-28T12:19:59;7.91;82.97
72320;SHT30;60269;52.502;16.732;2023-12-28T12:23:31;8.24;81.31
72320;SHT30;60269;52.502;16.732;2023-12-28T12:27:03;8.18;81.75
72320;SHT30;60269;52.502;16.732;2023-12-28T12:30:35;8.11;82.26
72320;SHT30;60269;52.502;16.732;2023-12-28T12:34:08;8.29;81.33
72320;SHT30;60269;52.502;16.732;2023-12-28T12:37:41;8.50;80.81
72320;SHT30;60269;52.502;16.732;2023-12-28T12:41:13;8.83;79.65
72320;SHT30;60269;52.502;16.732;2023-12-28T12:44:45;9.06;79.13
72320;SHT30;60269;52.502;16.732;2023-12-28T12:48:17;9.08;78.89
72320;SHT30;60269;52.502;16.732;2023-12-28T12:51:50;9.06;78.57
72320;SHT30;60269;52.502;16.732;2023-12-28T12:55:23;9.27;78.16
72320;SHT30;60269;52.502;16.732;2023-12-28T12:58:56;9.30;78.02
72320;SHT30;60269;52.502;16.732;2023-12-28T13:02:28;9.27;78.05
72320;SHT30;60269;52.502;16.732;2023-12-28T13:06:00;9.37;77.93
72320;SHT30;60269;52.502;16.732;2023-12-28T13:09:34;8.84;79.35
72320;SHT30;60269;52.502;16.732;2023-12-28T13:13:07;8.73;79.82
72320;SHT30;60269;52.502;16.732;2023-12-28T13:16:40;8.77;79.70
72320;SHT30;60269;52.502;16.732;2023-12-28T13:20:12;8.86;79.42
72320;SHT30;60269;52.502;16.732;2023-12-28T13:23:44;8.86;79.22
72320;SHT30;60269;52.502;16.732;2023-12-28T13:27:16;8.84;79.60
72320;SHT30;60269;52.502;16.732;2023-12-28T13:30:48;9.00;79.07
72320;SHT30;60269;52.502;16.732;2023-12-28T13:34:22;8.93;79.28
72320;SHT30;60269;52.502;16.732;2023-12-28T13:37:55;8.91;79.38
72320;SHT30;60269;52.502;16.732;2023-12-28T13:41:27;8.60;80.37
72320;SHT30;60269;52.502;16.732;2023-12-28T13:44:59;8.56;80.49
72320;SHT30;60269;52.502;16.732;2023-12-28T13:48:31;8.46;80.97
72320;SHT30;60269;52.502;16.732;2023-12-28T13:52:05;8.41;81.12
72320;SHT30;60269;52.502;16.732;2023-12-28T13:55:37;8.21;81.80
72320;SHT30;60269;52.502;16.732;2023-12-28T13:59:09;8.12;82.13
72320;SHT30;60269;52.502;16.732;2023-12-28T14:02:41;7.94;83.12
72320;SHT30;60269;52.502;16.732;2023-12-28T14:06:14;7.87;83.32
72320;SHT30;60269;52.502;16.732;2023-12-28T14:09:46;7.90;83.34
72320;SHT30;60269;52.502;16.732;2023-12-28T14:13:18;7.76;83.84
72320;SHT30;60269;52.502;16.732;2023-12-28T14:16:51;7.33;85.60
72320;SHT30;60269;52.502;16.732;2023-12-28T14:20:23;7.18;86.21
72320;SHT30;60269;52.502;16.732;2023-12-28T14:23:56;6.97;87.13
72320;SHT30;60269;52.502;16.732;2023-12-28T14:27:29;6.74;87.79
72320;SHT30;60269;52.502;16.732;2023-12-28T14:31:01;6.62;88.44
72320;SHT30;60269;52.502;16.732;2023-12-28T14:34:33;6.40;89.19
72320;SHT30;60269;52.502;16.732;2023-12-28T14:38:06;6.25;89.82
72320;SHT30;60269;52.502;16.732;2023-12-28T14:41:39;6.26;90.00
72320;SHT30;60269;52.502;16.732;2023-12-28T14:45:15;6.06;90.51
72320;SHT30;60269;52.502;16.732;2023-12-28T14:48:47;6.01;90.85
72320;SHT30;60269;52.502;16.732;2023-12-28T14:52:19;6.02;90.92
72320;SHT30;60269;52.502;16.732;2023-12-28T14:55:52;5.94;90.99
72320;SHT30;60269;52.502;16.732;2023-12-28T14:59:23;5.83;91.35
72320;SHT30;60269;52.502;16.732;2023-12-28T15:02:55;5.85;91.47
72320;SHT30;60269;52.502;16.732;2023-12-28T15:06:27;5.79;91.59
72320;SHT30;60269;52.502;16.732;2023-12-28T15:09:59;5.73;91.89
72320;SHT30;60269;52.502;16.732;2023-12-28T15:13:32;5.71;92.06
72320;SHT30;60269;52.502;16.732;2023-12-28T15:17:04;5.56;92.59
72320;SHT30;60269;52.502;16.732;2023-12-28T15:20:41;5.58;92.23
72320;SHT30;60269;52.502;16.732;2023-12-28T15:24:13;5.48;92.58
72320;SHT30;60269;52.502;16.732;2023-12-28T15:27:45;5.61;92.12
72320;SHT30;60269;52.502;16.732;2023-12-28T15:31:18;5.51;92.45
72320;SHT30;60269;52.502;16.732;2023-12-28T15:34:50;5.47;92.69
72320;SHT30;60269;52.502;16.732;2023-12-28T15:38:23;5.51;92.53
72320;SHT30;60269;52.502;16.732;2023-12-28T15:41:54;5.50;92.53
72320;SHT30;60269;52.502;16.732;2023-12-28T15:45:26;5.50;92.49
72320;SHT30;60269;52.502;16.732;2023-12-28T15:49:01;5.35;93.08
72320;SHT30;60269;52.502;16.732;2023-12-28T15:52:33;5.43;92.97
72320;SHT30;60269;52.502;16.732;2023-12-28T15:56:05;5.58;92.38
72320;SHT30;60269;52.502;16.732;2023-12-28T15:59:49;5.56;92.23
72320;SHT30;60269;52.502;16.732;2023-12-28T16:03:22;5.53;92.38
72320;SHT30;60269;52.502;16.732;2023-12-28T16:06:54;5.50;92.40
72320;SHT30;60269;52.502;16.732;2023-12-28T16:10:27;5.54;92.33
72320;SHT30;60269;52.502;16.732;2023-12-28T16:13:59;5.58;92.14
72320;SHT30;60269;52.502;16.732;2023-12-28T16:17:32;5.64;91.99
72320;SHT30;60269;52.502;16.732;2023-12-28T16:21:05;5.61;91.96
72320;SHT30;60269;52.502;16.732;2023-12-28T16:24:37;5.53;92.10
72320;SHT30;60269;52.502;16.732;2023-12-28T16:28:09;5.61;91.81
72320;SHT30;60269;52.502;16.732;2023-12-28T16:31:43;5.58;91.88
72320;SHT30;60269;52.502;16.732;2023-12-28T16:35:15;5.71;91.24
72320;SHT30;60269;52.502;16.732;2023-12-28T16:38:48;5.74;91.04
72320;SHT30;60269;52.502;16.732;2023-12-28T16:42:20;5.70;91.08
72320;SHT30;60269;52.502;16.732;2023-12-28T16:45:52;5.58;91.49
72320;SHT30;60269;52.502;16.732;2023-12-28T16:49:24;5.46;91.98
72320;SHT30;60269;52.502;16.732;2023-12-28T16:52:56;5.44;92.06
72320;SHT30;60269;52.502;16.732;2023-12-28T16:56:28;5.56;91.47
72320;SHT30;60269;52.502;16.732;2023-12-28T17:00:02;5.53;91.66
72320;SHT30;60269;52.502;16.732;2023-12-28T17:03:43;5.66;91.05
72320;SHT30;60269;52.502;16.732;2023-12-28T17:07:15;5.54;91.34
72320;SHT30;60269;52.502;16.732;2023-12-28T17:10:47;5.54;91.33
72320;SHT30;60269;52.502;16.732;2023-12-28T17:14:19;5.56;91.38
72320;SHT30;60269;52.502;16.732;2023-12-28T17:17:51;5.71;90.44
72320;SHT30;60269;52.502;16.732;2023-12-28T17:21:29;5.79;90.17
72320;SHT30;60269;52.502;16.732;2023-12-28T17:28:51;5.66;90.55
72320;SHT30;60269;52.502;16.732;2023-12-28T17:32:25;5.68;90.51
72320;SHT30;60269;52.502;16.732;2023-12-28T17:35:57;5.63;90.35
72320;SHT30;60269;52.502;16.732;2023-12-28T17:39:29;5.67;90.21
72320;SHT30;60269;52.502;16.732;2023-12-28T17:43:14;5.87;89.39
72320;SHT30;60269;52.502;16.732;2023-12-28T17:47:02;5.97;88.98
72320;SHT30;60269;52.502;16.732;2023-12-28T17:50:37;6.01;88.87
72320;SHT30;60269;52.502;16.732;2023-12-28T17:54:10;6.14;88.18
72320;SHT30;60269;52.502;16.732;2023-12-28T17:57:42;6.39;87.27
72320;SHT30;60269;52.502;16.732;2023-12-28T18:01:14;6.42;86.98
72320;SHT30;60269;52.502;16.732;2023-12-28T18:04:48;6.32;87.25
72320;SHT30;60269;52.502;16.732;2023-12-28T18:08:21;6.16;87.81
72320;SHT30;60269;52.502;16.732;2023-12-28T18:11:53;6.19;87.97
72320;SHT30;60269;52.502;16.732;2023-12-28T18:15:25;6.14;88.16
72320;SHT30;60269;52.502;16.732;2023-12-28T18:18:57;6.05;88.26
72320;SHT30;60269;52.502;16.732;2023-12-28T18:22:31;5.79;89.04
72320;SHT30;60269;52.502;16.732;2023-12-28T18:26:03;5.50;90.27
72320;SHT30;60269;52.502;16.732;2023-12-28T18:29:35;5.47;90.37
72320;SHT30;60269;52.502;16.732;2023-12-28T18:33:07;5.48;90.29
72320;SHT30;60269;52.502;16.732;2023-12-28T18:36:40;5.19;91.38
72320;SHT30;60269;52.502;16.732;2023-12-28T18:40:13;5.36;90.88
72320;SHT30;60269;52.502;16.732;2023-12-28T18:43:45;5.25;91.14
72320;SHT30;60269;52.502;16.732;2023-12-28T18:47:17;5.22;91.48
72320;SHT30;60269;52.502;16.732;2023-12-28T18:50:49;5.25;91.25
72320;SHT30;60269;52.502;16.732;2023-12-28T18:54:24;5.09;91.90
72320;SHT30;60269;52.502;16.732;2023-12-28T18:57:56;5.26;91.51
72320;SHT30;60269;52.502;16.732;2023-12-28T19:01:29;5.23;91.45
72320;SHT30;60269;52.502;16.732;2023-12-28T19:05:02;5.25;91.48
72320;SHT30;60269;52.502;16.732;2023-12-28T19:08:34;5.27;91.45
72320;SHT30;60269;52.502;16.732;2023-12-28T19:12:07;5.35;91.31
72320;SHT30;60269;52.502;16.732;2023-12-28T19:15:40;5.32;91.40
72320;SHT30;60269;52.502;16.732;2023-12-28T19:19:13;5.30;91.74
72320;SHT30;60269;52.502;16.732;2023-12-28T19:22:45;5.46;91.25
72320;SHT30;60269;52.502;16.732;2023-12-28T19:26:17;5.48;91.02
72320;SHT30;60269;52.502;16.732;2023-12-28T19:29:54;5.58;90.96
72320;SHT30;60269;52.502;16.732;2023-12-28T19:33:30;5.63;90.85
72320;SHT30;60269;52.502;16.732;2023-12-28T19:37:02;5.63;90.86
72320;SHT30;60269;52.502;16.732;2023-12-28T19:40:34;5.73;90.67
72320;SHT30;60269;52.502;16.732;2023-12-28T19:44:06;5.66;90.69
72320;SHT30;60269;52.502;16.732;2023-12-28T19:47:38;5.46;91.41
72320;SHT30;60269;52.502;16.732;2023-12-28T19:51:10;5.30;91.88
72320;SHT30;60269;52.502;16.732;2023-12-28T19:54:43;4.98;93.04
72320;SHT30;60269;52.502;16.732;2023-12-28T19:58:16;4.89;93.42
72320;SHT30;60269;52.502;16.732;2023-12-28T20:01:48;4.85;93.59
72320;SHT30;60269;52.502;16.732;2023-12-28T20:05:21;4.77;93.75
72320;SHT30;60269;52.502;16.732;2023-12-28T20:08:52;4.75;93.97
72320;SHT30;60269;52.502;16.732;2023-12-28T20:12:24;4.75;93.92
72320;SHT30;60269;52.502;16.732;2023-12-28T20:15:56;4.82;93.43
72320;SHT30;60269;52.502;16.732;2023-12-28T20:19:29;4.69;93.86
72320;SHT30;60269;52.502;16.732;2023-12-28T20:23:01;4.58;94.21
72320;SHT30;60269;52.502;16.732;2023-12-28T20:26:34;4.74;93.86
72320;SHT30;60269;52.502;16.732;2023-12-28T20:30:06;4.56;94.34
72320;SHT30;60269;52.502;16.732;2023-12-28T20:33:38;4.56;94.18
72320;SHT30;60269;52.502;16.732;2023-12-28T20:37:11;4.53;94.22
72320;SHT30;60269;52.502;16.732;2023-12-28T20:40:43;4.58;94.21
72320;SHT30;60269;52.502;16.732;2023-12-28T20:44:15;4.50;94.29
72320;SHT30;60269;52.502;16.732;2023-12-28T20:47:50;4.56;94.08
72320;SHT30;60269;52.502;16.732;2023-12-28T20:51:22;4.48;94.29
72320;SHT30;60269;52.502;16.732;2023-12-28T20:54:55;4.41;94.52
72320;SHT30;60269;52.502;16.732;2023-12-28T20:58:27;4.43;94.59
72320;SHT30;60269;52.502;16.732;2023-12-28T21:02:00;4.48;94.39
72320;SHT30;60269;52.502;16.732;2023-12-28T21:05:31;4.43;94.42
72320;SHT30;60269;52.502;16.732;2023-12-28T21:09:04;4.56;93.97
72320;SHT30;60269;52.502;16.732;2023-12-28T21:12:36;4.54;94.18
72320;SHT30;60269;52.502;16.732;2023-12-28T21:16:11;4.56;94.09
72320;SHT30;60269;52.502;16.732;2023-12-28T21:19:43;4.46;94.41
72320;SHT30;60269;52.502;16.732;2023-12-28T21:23:18;4.64;93.89
72320;SHT30;60269;52.502;16.732;2023-12-28T21:26:50;4.62;93.90
72320;SHT30;60269;52.502;16.732;2023-12-28T21:30:23;4.64;93.99
72320;SHT30;60269;52.502;16.732;2023-12-28T21:33:55;4.77;93.47
72320;SHT30;60269;52.502;16.732;2023-12-28T21:37:27;4.68;93.62
72320;SHT30;60269;52.502;16.732;2023-12-28T21:40:59;4.81;93.38
72320;SHT30;60269;52.502;16.732;2023-12-28T21:44:31;4.88;93.15
72320;SHT30;60269;52.502;16.732;2023-12-28T21:48:03;4.98;92.71
72320;SHT30;60269;52.502;16.732;2023-12-28T21:51:36;5.05;92.43
72320;SHT30;60269;52.502;16.732;2023-12-28T21:55:09;5.13;92.14
72320;SHT30;60269;52.502;16.732;2023-12-28T21:58:41;5.23;91.77
72320;SHT30;60269;52.502;16.732;2023-12-28T22:05:27;5.26;91.57
72320;SHT30;60269;52.502;16.732;2023-12-28T22:09:32;5.47;90.61
72320;SHT30;60269;52.502;16.732;2023-12-28T22:13:09;5.40;90.71
72320;SHT30;60269;52.502;16.732;2023-12-28T22:16:43;5.46;90.61
72320;SHT30;60269;52.502;16.732;2023-12-28T22:20:16;5.50;90.45
72320;SHT30;60269;52.502;16.732;2023-12-28T22:23:48;5.32;91.05
72320;SHT30;60269;52.502;16.732;2023-12-28T22:27:21;5.40;90.73
72320;SHT30;60269;52.502;16.732;2023-12-28T22:30:53;5.44;90.58